Time;durP1;ratioP1;P1;durP2;ratioP2;P2;SDS_P1;SDS_P2;PMS_P1;PMS_P2;Temp;Humidity;BMP_temperature;BMP_pressure;BME280_temperature;BME280_humidity;BME280_pressure;Samples;Min_cycle;Max_cycle;Signal;HPM_P1;HPM_P2
2022/12/06 00:00:40;;;;;;;6.47;4.40;;;;;;;;;;5033835;28;20033;-85
2022/12/06 00:03:05;;;;;;;5.63;4.70;;;;;;;;;;5031979;28;20520;-84
2022/12/06 00:05:30;;;;;;;5.60;4.30;;;;;;;;;;5033011;28;20038;-85
2022/12/06 00:07:55;;;;;;;6.53;4.40;;;;;;;;;;5033819;28;20544;-84
2022/12/06 00:10:21;;;;;;;6.00;4.65;;;;;;;;;;5032594;28;20047;-85
2022/12/06 00:12:46;;;;;;;7.25;4.80;;;;;;;;;;5033045;28;20029;-85
2022/12/06 00:15:11;;;;;;;6.33;4.53;;;;;;;;;;5031052;28;20037;-86
2022/12/06 00:17:36;;;;;;;7.43;4.67;;;;;;;;;;5029799;28;20095;-85
2022/12/06 00:20:01;;;;;;;7.20;5.10;;;;;;;;;;5031383;28;20037;-88
2022/12/06 00:22:26;;;;;;;7.13;4.90;;;;;;;;;;5031588;28;20030;-85
2022/12/06 00:24:52;;;;;;;7.70;4.90;;;;;;;;;;5032058;28;20675;-87
2022/12/06 00:27:17;;;;;;;5.80;4.40;;;;;;;;;;5034435;28;20040;-85
2022/12/06 00:29:42;;;;;;;6.13;4.70;;;;;;;;;;5035481;28;20037;-87
2022/12/06 00:32:07;;;;;;;7.03;4.47;;;;;;;;;;5030530;28;20041;-86
2022/12/06 00:34:32;;;;;;;7.43;4.40;;;;;;;;;;5029714;28;20029;-87
2022/12/06 00:36:58;;;;;;;6.00;4.10;;;;;;;;;;5048964;28;20055;-86
2022/12/06 00:39:23;;;;;;;5.95;4.22;;;;;;;22.38;0.00;120372.25;5037428;28;20038;-85
2022/12/06 00:41:48;;;;;;;5.65;3.90;;;;;;;;;;5036057;28;20068;-86
2022/12/06 00:44:13;;;;;;;6.60;4.00;;;;;;;;;;5033852;28;20315;-86
2022/12/06 00:46:39;;;;;;;4.90;3.53;;;;;;;;;;5033382;28;20271;-87
2022/12/06 00:49:05;;;;;;;4.80;3.60;;;;;;;;;;5032528;28;20053;-85
2022/12/06 00:51:31;;;;;;;5.50;4.00;;;;;;;;;;5032170;28;20056;-86
2022/12/06 00:53:57;;;;;;;6.55;4.68;;;;;;;;;;5032600;28;20554;-86
2022/12/06 00:56:23;;;;;;;5.80;4.10;;;;;;;;;;5033624;28;20094;-85
2022/12/06 00:58:48;;;;;;;6.10;3.90;;;;;;;;;;5033024;28;20515;-85
2022/12/06 01:01:14;;;;;;;5.40;4.30;;;;;;;;;;5031318;28;20043;-87
2022/12/06 01:03:40;;;;;;;5.53;4.15;;;;;;;;;;5041942;28;20051;-87
2022/12/06 01:06:07;;;;;;;6.18;4.55;;;;;;;;;;5030779;28;20475;-86
2022/12/06 01:08:32;;;;;;;6.28;4.60;;;;;;;;;;5029554;28;20041;-88
2022/12/06 01:10:57;;;;;;;6.90;5.05;;;;;;;;;;5030520;28;20555;-88
2022/12/06 01:13:23;;;;;;;7.00;5.10;;;;;;;;;;5030094;28;20080;-87
2022/12/06 01:15:48;;;;;;;5.20;3.80;;;;;;;;;;5030681;28;20037;-86
2022/12/06 01:18:14;;;;;;;4.78;3.80;;;;;;;;;;5031587;28;20026;-86
2022/12/06 01:20:39;;;;;;;5.35;3.67;;;;;;;;;;5030095;28;20038;-86
2022/12/06 01:23:04;;;;;;;5.27;3.63;;;;;;;;;;5031190;28;20038;-86
2022/12/06 01:25:31;;;;;;;5.30;3.53;;;;;;;;;;5031165;28;20084;-86
2022/12/06 01:27:56;;;;;;;4.72;3.42;;;;;;;;;;5030646;28;20052;-86
2022/12/06 01:30:22;;;;;;;8.20;4.72;;;;;;;;;;5025157;28;20037;-87
2022/12/06 01:32:47;;;;;;;6.00;4.40;;;;;;;;;;5028140;28;20029;-86
2022/12/06 01:35:12;;;;;;;5.57;4.00;;;;;;;;;;5025551;28;20529;-86
2022/12/06 01:37:37;;;;;;;5.13;3.25;;;;;;;;;;5028537;28;20291;-86
2022/12/06 01:40:03;;;;;;;6.70;4.43;;;;;;;;;;5027354;28;20109;-87
2022/12/06 01:42:28;;;;;;;7.00;5.18;;;;;;;;;;5027236;28;20293;-85
2022/12/06 01:44:54;;;;;;;6.63;4.93;;;;;;;;;;5028423;28;20041;-84
2022/12/06 01:47:23;;;;;;;7.18;5.35;;;;;;;;;;5030721;28;20428;-84
2022/12/06 01:49:51;;;;;;;8.23;5.82;;;;;;;;;;5029573;28;20037;-85
2022/12/06 01:52:17;;;;;;;6.82;5.10;;;;;;;;;;5028105;28;20547;-84
2022/12/06 01:54:42;;;;;;;6.40;4.63;;;;;;;;;;5030559;28;20041;-84
2022/12/06 01:57:09;;;;;;;6.35;4.05;;;;;;;;;;5033356;28;20044;-84
2022/12/06 01:59:34;;;;;;;5.35;4.32;;;;;;;;;;5041452;28;20040;-85
2022/12/06 02:02:00;;;;;;;5.95;4.10;;;;;;;;;;5041275;28;20065;-84
2022/12/06 02:04:25;;;;;;;5.13;3.72;;;;;;;;;;5035795;28;20061;-85
2022/12/06 02:06:51;;;;;;;4.70;3.40;;;;;;;;;;5031670;28;20056;-85
2022/12/06 02:09:17;;;;;;;5.32;3.70;;;;;;;;;;5036218;28;20037;-84
2022/12/06 02:11:42;;;;;;;5.07;3.88;;;;;;;;;;5031346;28;20435;-84
2022/12/06 02:14:13;;;;;;;5.93;4.20;;;;;;;;;;5034468;28;20151;-85
2022/12/06 02:17:01;;;;;;;5.40;3.92;;;;;;;;;;5033837;28;20038;-83
2022/12/06 02:19:45;;;;;;;6.18;4.22;;;;;;;;;;5032085;28;20033;-84
2022/12/06 02:22:18;;;;;;;6.53;4.60;;;;;;;;;;5016718;28;20042;-86
2022/12/06 02:24:57;;;;;;;6.47;4.38;;;;;;;;;;5029877;28;20045;-85
2022/12/06 02:27:22;;;;;;;6.10;4.65;;;;;;;;;;5027266;28;20404;-85
2022/12/06 02:30:01;;;;;;;5.90;4.30;;;;;;;;;;5027700;28;20050;-86
2022/12/06 02:32:34;;;;;;;5.25;4.03;;;;;;;;;;5032147;28;20042;-87
2022/12/06 02:35:05;;;;;;;6.97;4.70;;;;;;;;;;5028388;28;20049;-86
2022/12/06 02:37:34;;;;;;;7.70;4.97;;;;;;;;;;5032264;28;20030;-85
2022/12/06 02:40:05;;;;;;;6.18;4.30;;;;;;;;;;5030620;28;20044;-87
2022/12/06 02:42:37;;;;;;;6.10;4.25;;;;;;;;;;5028195;28;20033;-85
2022/12/06 02:45:08;;;;;;;5.47;3.78;;;;;;;;;;5027884;28;20038;-85
2022/12/06 02:47:35;;;;;;;5.65;4.03;;;;;;;;;;5013576;28;20129;-86
2022/12/06 02:50:02;;;;;;;5.00;3.47;;;;;;;;;;5031519;28;20037;-87
2022/12/06 02:52:28;;;;;;;4.57;3.30;;;;;;;;;;5028307;28;20041;-85
2022/12/06 02:54:55;;;;;;;5.07;3.10;;;;;;;;;;5025656;28;20048;-88
2022/12/06 02:57:26;;;;;;;4.97;3.78;;;;;;;;;;5028572;28;20065;-85
2022/12/06 02:59:51;;;;;;;5.60;4.20;;;;;;;;;;5030626;28;20044;-86
2022/12/06 03:02:17;;;;;;;6.13;4.20;;;;;;;;;;5013812;28;20117;-86
2022/12/06 03:04:51;;;;;;;6.82;4.47;;;;;;;;;;5026192;28;20088;-87
2022/12/06 03:07:26;;;;;;;6.05;4.10;;;;;;;;;;5027909;28;20037;-86
2022/12/06 03:10:08;;;;;;;6.72;4.82;;;;;;;;;;5027717;28;20120;-87
2022/12/06 03:12:37;;;;;;;6.78;4.90;;;;;;;;;;5024775;28;20033;-86
2022/12/06 03:15:05;;;;;;;8.20;5.35;;;;;;;;;;5028678;28;20069;-85
2022/12/06 03:17:46;;;;;;;5.88;4.43;;;;;;;;;;5036492;28;20049;-84
2022/12/06 03:20:25;;;;;;;6.20;4.82;;;;;;;;;;5036282;28;20072;-84
2022/12/06 03:22:53;;;;;;;7.22;4.57;;;;;;;;;;5032056;28;20041;-86
2022/12/06 03:25:18;;;;;;;7.00;5.00;;;;;;;;;;5029887;28;20087;-86
2022/12/06 03:27:45;;;;;;;6.90;4.80;;;;;;;;;;5029387;28;20531;-85
2022/12/06 03:30:11;;;;;;;6.68;5.10;;;;;;;;;;5027279;28;20029;-84
2022/12/06 03:32:37;;;;;;;8.13;5.07;;;;;;;;;;5036505;28;20048;-85
2022/12/06 03:35:05;;;;;;;5.82;4.45;;;;;;;;;;5037163;28;20037;-84
2022/12/06 03:37:31;;;;;;;6.82;4.60;;;;;;;;;;5032436;28;20038;-84
2022/12/06 03:40:00;;;;;;;7.43;4.97;;;;;;;;;;5038546;28;20084;-85
2022/12/06 03:42:26;;;;;;;5.65;3.97;;;;;;;;;;5039396;28;20069;-84
2022/12/06 03:44:51;;;;;;;6.03;4.47;;;;;;;;;;5040214;28;20052;-85
2022/12/06 03:47:19;;;;;;;6.38;3.95;;;;;;;;;;5040969;28;20112;-85
2022/12/06 03:49:53;;;;;;;6.28;4.57;;;;;;;;;;5040982;28;20033;-84
2022/12/06 03:52:18;;;;;;;6.03;4.28;;;;;;;;;;5038490;28;20036;-85
2022/12/06 03:54:43;;;;;;;4.97;3.40;;;;;;;;;;5038337;28;20033;-84
2022/12/06 03:57:08;;;;;;;5.17;3.10;;;;;;;;;;5038191;28;20095;-84
2022/12/06 03:59:34;;;;;;;4.45;3.58;;;;;;;;;;5037863;28;20026;-84
2022/12/06 04:01:59;;;;;;;6.07;3.30;;;;;;;;;;5036729;28;20121;-84
2022/12/06 04:04:24;;;;;;;4.60;3.50;;;;;;;;;;5036662;28;20037;-84
2022/12/06 04:06:50;;;;;;;4.15;2.90;;;;;;;;;;5038888;28;20045;-84
2022/12/06 04:11:59;;;;;;;5.18;3.78;;;;;;;;;;5038590;28;20068;-84
2022/12/06 04:14:38;;;;;;;4.90;3.63;;;;;;;;;;5035970;28;20543;-85
2022/12/06 04:19:47;;;;;;;5.20;3.85;;;;;;;;;;5035860;28;20091;-84
2022/12/06 04:24:56;;;;;;;5.70;3.80;;;;;;;;;;5036287;28;20068;-84
2022/12/06 04:41:01;;;;;;;6.00;3.28;;;;;;;;;;5044309;28;20059;-84
2022/12/06 04:43:41;;;;;;;7.23;4.00;;;;;;;;;;5044463;28;20076;-84
2022/12/06 04:46:10;;;;;;;6.80;4.43;;;;;;;;;;5029399;28;20547;-85
2022/12/06 04:48:36;;;;;;;5.57;3.72;;;;;;;;;;5035025;28;20065;-86
2022/12/06 04:51:01;;;;;;;5.70;3.72;;;;;;;;;;5035021;28;20033;-84
2022/12/06 04:53:27;;;;;;;5.15;3.30;;;;;;;;;;5051906;28;20036;-84
2022/12/06 04:55:52;;;;;;;5.80;4.00;;;;;;;;;;5037918;28;20033;-84
2022/12/06 04:58:17;;;;;;;5.00;3.50;;;;;;;;;;5033285;28;20037;-85
2022/12/06 05:00:43;;;;;;;5.10;3.37;;;;;;;;;;5033436;28;20045;-85
2022/12/06 05:03:12;;;;;;;5.33;3.80;;;;;;;;;;5034647;28;20279;-84
2022/12/06 05:05:37;;;;;;;7.25;4.78;;;;;;;;;;5033371;28;20299;-84
2022/12/06 05:08:03;;;;;;;6.72;5.00;;;;;;;;;;5034458;28;20042;-85
2022/12/06 05:10:28;;;;;;;6.07;4.05;;;;;;;;;;5035302;28;20037;-85
2022/12/06 05:12:53;;;;;;;6.70;4.97;;;;;;;;;;5032842;28;20033;-88
2022/12/06 05:15:18;;;;;;;5.93;4.23;;;;;;;;;;5029622;28;20040;-86
2022/12/06 05:17:43;;;;;;;6.47;3.90;;;;;;;;;;5029579;28;20055;-87
2022/12/06 05:20:09;;;;;;;4.87;3.60;;;;;;;;;;5029507;28;20393;-86
2022/12/06 05:22:34;;;;;;;4.38;3.50;;;;;;;;;;5046587;28;20267;-87
2022/12/06 05:24:59;;;;;;;5.80;4.17;;;;;;;;;;5048749;28;20041;-87
2022/12/06 05:27:24;;;;;;;4.27;3.20;;;;;;;;;;5035880;28;20045;-86
2022/12/06 05:29:50;;;;;;;4.45;2.90;;;;;;;;;;5025703;28;20080;-87
2022/12/06 05:32:15;;;;;;;4.27;2.93;;;;;;;-145.20;100.00;159927.88;5028449;28;20030;-86
2022/12/06 05:34:40;;;;;;;5.18;2.72;;;;;;;22.38;100.00;120313.59;5026039;28;20529;-86
2022/12/06 05:37:05;;;;;;;5.18;3.60;;;;;;;;;;5018859;28;20038;-86
2022/12/06 05:39:31;;;;;;;5.27;3.43;;;;;;;;;;5034335;28;20049;-85
2022/12/06 05:41:56;;;;;;;4.35;3.05;;;;;;;;;;5038085;28;20128;-85
2022/12/06 05:44:21;;;;;;;6.10;4.03;;;;;;;;;;5039477;28;20053;-85
2022/12/06 05:46:46;;;;;;;4.72;3.28;;;;;;;;;;5041132;28;20041;-85
2022/12/06 05:49:12;;;;;;;6.33;4.50;;;;;;;;;;5041234;28;20045;-85
2022/12/06 05:51:37;;;;;;;6.20;4.28;;;;;;;;;;5038997;28;20033;-85
2022/12/06 05:54:04;;;;;;;6.45;4.03;;;;;;;;;;5039600;28;20037;-85
2022/12/06 05:56:29;;;;;;;5.25;3.78;;;;;;;;;;5037983;28;20033;-85
2022/12/06 05:58:54;;;;;;;5.50;2.60;;;;;;;;;;5038513;28;20079;-85
2022/12/06 06:01:20;;;;;;;5.80;3.60;;;;;;;;;;5038515;28;20036;-85
2022/12/06 06:03:45;;;;;;;4.13;3.07;;;;;;;;;;5039922;28;20134;-85
2022/12/06 06:06:10;;;;;;;5.93;4.03;;;;;;;;;;5037746;28;20038;-85
2022/12/06 06:08:35;;;;;;;5.17;3.23;;;;;;;;;;5038473;28;20043;-85
2022/12/06 06:11:01;;;;;;;5.53;3.50;;;;;;;;;;5039685;28;20355;-85
2022/12/06 06:13:26;;;;;;;4.40;3.30;;;;;;;;;;5039510;28;20084;-85
2022/12/06 06:15:51;;;;;;;4.28;3.15;;;;;;;;;;5038027;28;20044;-85
2022/12/06 06:18:17;;;;;;;5.67;3.87;;;;;;;;;;5039005;28;20025;-85
2022/12/06 06:20:46;;;;;;;6.25;3.88;;;;;;;;;;5039112;28;20037;-85
2022/12/06 06:23:11;;;;;;;5.97;4.22;;;;;;;;;;5035280;28;20045;-85
2022/12/06 06:25:38;;;;;;;6.33;4.00;;;;;;;;;;5039131;28;20111;-85
2022/12/06 06:28:03;;;;;;;5.85;4.05;;;;;;;;;;5039324;28;20037;-85
2022/12/06 06:30:31;;;;;;;6.25;4.30;;;;;;;;;;5042295;28;20064;-85
2022/12/06 06:32:56;;;;;;;4.85;3.50;;;;;;;;;;5038453;28;20037;-85
2022/12/06 06:35:21;;;;;;;5.10;3.60;;;;;;;;;;5036899;28;20034;-85
2022/12/06 06:37:47;;;;;;;4.70;3.00;;;;;;;;;;5037946;28;20052;-85
2022/12/06 06:40:12;;;;;;;4.88;2.85;;;;;;;;;;5036992;28;20296;-85
2022/12/06 06:42:38;;;;;;;3.83;2.78;;;;;;;;;;5039027;28;20029;-86
2022/12/06 06:45:03;;;;;;;4.80;3.20;;;;;;;;;;5038976;28;20087;-86
2022/12/06 06:47:29;;;;;;;4.80;3.08;;;;;;;;;;5038734;28;20030;-86
2022/12/06 06:49:54;;;;;;;3.87;2.97;;;;;;;;;;5038252;28;20045;-85
2022/12/06 06:52:19;;;;;;;5.93;3.57;;;;;;;;;;5037323;28;20040;-85
2022/12/06 06:54:44;;;;;;;6.45;4.15;;;;;;;;;;5038433;28;20111;-86
2022/12/06 06:57:09;;;;;;;7.63;3.83;;;;;;;;;;5037566;28;20037;-85
2022/12/06 06:59:35;;;;;;;5.77;3.60;;;;;;;;;;5035768;28;20414;-86
2022/12/06 07:02:00;;;;;;;4.43;3.27;;;;;;;;;;5036286;28;20026;-85
2022/12/06 07:04:25;;;;;;;5.43;3.60;;;;;;;;;;5036340;28;20717;-86
2022/12/06 07:06:50;;;;;;;4.60;3.23;;;;;;;;;;5039796;28;20041;-84
2022/12/06 07:09:16;;;;;;;5.28;3.17;;;;;;;;;;5036740;28;20091;-85
2022/12/06 07:11:41;;;;;;;5.20;3.87;;;;;;;;;;5028256;28;20408;-85
2022/12/06 07:14:06;;;;;;;5.90;3.77;;;;;;;;;;5034339;28;20811;-86
2022/12/06 07:16:31;;;;;;;4.80;3.30;;;;;;;;;;5039048;28;20063;-85
2022/12/06 07:18:56;;;;;;;4.50;3.20;;;;;;;;;;5045363;28;20653;-85
2022/12/06 07:21:22;;;;;;;4.20;2.90;;;;;;;;;;5036043;28;20343;-86
2022/12/06 07:23:48;;;;;;;4.63;2.88;;;;;;;;;;5032249;28;20037;-85
2022/12/06 07:26:14;;;;;;;4.32;3.30;;;;;;;;;;5034199;28;20040;-85
2022/12/06 07:28:43;;;;;;;5.40;3.70;;;;;;;;;;5034988;28;20053;-85
2022/12/06 07:31:13;;;;;;;4.85;3.45;;;;;;;;;;5033957;28;20037;-85
2022/12/06 07:33:38;;;;;;;5.15;3.28;;;;;;;;;;5034962;28;20029;-86
2022/12/06 07:36:04;;;;;;;5.93;4.30;;;;;;;;;;5029561;28;20046;-88
2022/12/06 07:38:29;;;;;;;7.13;3.70;;;;;;;;;;5025502;28;20064;-86
2022/12/06 07:40:59;;;;;;;5.73;3.70;;;;;;;;;;5031646;28;21177;-86
2022/12/06 07:46:11;;;;;;;6.70;4.88;;;;;;;;;;5029896;28;20070;-86
2022/12/06 07:48:37;;;;;;;5.70;4.13;;;;;;;;;;5030853;28;20049;-87
2022/12/06 07:51:05;;;;;;;6.18;4.15;;;;;;;;;;5024757;28;20040;-87
2022/12/06 07:53:31;;;;;;;7.65;4.45;;;;;;;;;;5022711;28;20448;-86
2022/12/06 07:55:56;;;;;;;6.60;4.63;;;;;;;;;;5027599;28;20042;-86
2022/12/06 07:58:21;;;;;;;6.70;4.10;;;;;;;;;;5027250;28;20035;-87
2022/12/06 08:00:47;;;;;;;5.80;4.13;;;;;;;;;;5027394;28;20517;-87
2022/12/06 08:03:13;;;;;;;6.13;3.80;;;;;;;;;;5027641;28;20130;-86
2022/12/06 08:05:38;;;;;;;5.07;3.57;;;;;;;;;;5025058;28;20364;-87
2022/12/06 08:08:03;;;;;;;4.47;3.38;;;;;;;;;;5030085;28;20046;-86
2022/12/06 08:10:28;;;;;;;5.38;3.90;;;;;;;;;;5038469;28;20049;-85
2022/12/06 08:12:54;;;;;;;4.53;3.17;;;;;;;;;;5034819;28;20061;-85
2022/12/06 08:15:19;;;;;;;4.97;3.40;;;;;;;;;;5038274;28;20289;-85
2022/12/06 08:17:45;;;;;;;6.57;4.37;;;;;;;;;;5041692;28;20185;-85
2022/12/06 08:20:11;;;;;;;4.35;3.40;;;;;;;;;;5036289;28;20044;-85
2022/12/06 08:22:36;;;;;;;5.22;3.88;;;;;;;;;;5033533;28;20033;-85
2022/12/06 08:25:04;;;;;;;6.10;4.03;;;;;;;;;;5037642;28;20057;-85
2022/12/06 08:27:29;;;;;;;5.18;3.58;;;;;;;;;;5038703;28;20048;-85
2022/12/06 08:29:54;;;;;;;5.13;3.90;;;;;;;;;;5039114;28;20034;-85
2022/12/06 08:32:19;;;;;;;6.35;3.85;;;;;;;;;;5028605;28;20034;-85
2022/12/06 08:34:44;;;;;;;6.07;4.00;;;;;;;;;;5037313;28;20042;-85
2022/12/06 08:37:10;;;;;;;4.93;3.30;;;;;;;;;;5035704;28;20208;-85
2022/12/06 08:39:35;;;;;;;5.55;3.67;;;;;;;;;;5038411;28;20463;-85
2022/12/06 08:42:05;;;;;;;4.95;3.63;;;;;;;;;;5038611;28;20045;-86
2022/12/06 08:44:31;;;;;;;5.95;3.67;;;;;;;;;;5036473;28;20041;-85
2022/12/06 08:46:57;;;;;;;5.78;3.45;;;;;;;;;;5036038;28;20044;-85
2022/12/06 08:49:24;;;;;;;5.97;3.53;;;;;;;;;;5038521;28;20083;-85
2022/12/06 08:51:49;;;;;;;5.28;3.22;;;;;;;;;;5035840;28;20109;-84
2022/12/06 08:54:15;;;;;;;4.53;2.95;;;;;;;;;;5037260;28;20283;-85
2022/12/06 08:56:43;;;;;;;3.78;2.53;;;;;;;;;;5039739;28;20079;-85
2022/12/06 08:59:08;;;;;;;4.63;2.88;;;;;;;;;;5032101;28;20041;-85
2022/12/06 09:01:34;;;;;;;4.63;2.97;;;;;;;;;;5035102;28;20053;-84
2022/12/06 09:04:00;;;;;;;6.15;4.30;;;;;;;;;;5038151;28;20033;-85
2022/12/06 09:06:26;;;;;;;5.53;3.90;;;;;;;;;;5046728;28;20551;-85
2022/12/06 09:08:51;;;;;;;5.97;3.90;;;;;;;;;;5043151;28;20045;-85
2022/12/06 09:11:17;;;;;;;5.73;4.00;;;;;;;;;;5046228;28;20060;-85
2022/12/06 09:13:42;;;;;;;7.20;4.22;;;;;;;;;;5044047;28;20060;-86
2022/12/06 09:16:12;;;;;;;6.50;3.92;;;;;;;;;;5042549;28;20037;-86
2022/12/06 09:18:37;;;;;;;7.32;4.30;;;;;;;;;;5047688;28;20033;-83
2022/12/06 09:21:03;;;;;;;8.88;4.57;;;;;;;;;;5048401;28;20067;-83
2022/12/06 09:23:28;;;;;;;8.57;4.47;;;;;;;;;;5046667;28;20101;-83
2022/12/06 09:25:54;;;;;;;6.20;3.80;;;;;;;;;;5048195;28;20037;-84
2022/12/06 09:28:19;;;;;;;6.63;3.92;;;;;;;;;;5048077;28;20287;-84
2022/12/06 09:30:44;;;;;;;7.07;4.20;;;;;;;;;;5046872;28;20080;-84
2022/12/06 09:33:10;;;;;;;5.70;3.33;;;;;;;;;;5048599;28;20060;-84
2022/12/06 09:35:35;;;;;;;5.00;3.25;;;;;;;;;;5049951;28;20061;-84
2022/12/06 09:38:02;;;;;;;5.03;2.80;;;;;;;;;;5047031;28;20041;-85
2022/12/06 09:40:33;;;;;;;4.85;2.83;;;;;;;;;;5046608;28;20096;-83
2022/12/06 09:42:58;;;;;;;;;;;;;;;;;;5045396;28;20038;-84
2022/12/06 09:45:36;;;;;;;5.10;3.63;;;;;;;;;;5048875;28;19927;-84
2022/12/06 09:48:08;;;;;;;4.88;3.25;;;;;;;;;;5049705;28;20292;-86
2022/12/06 09:50:51;;;;;;;5.60;3.78;;;;;;;;;;5048620;28;20037;-85
2022/12/06 09:53:16;;;;;;;5.88;4.00;;;;;;;;;;5049993;28;20048;-85
2022/12/06 09:55:52;;;;;;;5.20;3.67;;;;;;;;;;5050821;28;20041;-84
2022/12/06 09:58:26;;;;;;;5.88;3.70;;;;;;;;;;5039710;28;20030;-87
2022/12/06 10:01:06;;;;;;;5.25;3.70;;;;;;;;;;5031805;28;20061;-86
2022/12/06 10:03:37;;;;;;;4.50;3.17;;;;;;;;;;5027955;28;20057;-86
2022/12/06 10:06:02;;;;;;;;;;;;;;;;;;5031256;28;20501;-88
2022/12/06 10:08:40;;;;;;;4.60;3.15;;;;;;;;;;5029274;28;19928;-86
2022/12/06 10:11:13;;;;;;;4.40;3.22;;;;;;;;;;5034231;28;20181;-86
2022/12/06 10:13:45;;;;;;;5.68;3.33;;;;;;;;;;5034055;28;20508;-86
2022/12/06 10:16:29;;;;;;;4.50;3.28;;;;;;;;;;5030050;28;20038;-86
2022/12/06 10:18:54;;;;;;;4.63;3.25;;;;;;;;;;5028908;28;20065;-86
2022/12/06 10:21:36;;;;;;;5.18;3.20;;;;;;;;;;5032116;28;20038;-88
2022/12/06 10:24:05;;;;;;;4.57;3.10;;;;;;;;;;5030578;28;20034;-88
2022/12/06 10:26:31;;;;;;;4.60;3.50;;;;;;;;;;5039284;28;20037;-91
2022/12/06 10:28:56;;;;;;;4.70;3.30;;;;;;;;;;5028077;28;20492;-87
2022/12/06 10:31:25;;;;;;;4.30;3.23;;;;;;;;;;5039554;28;20069;-87
2022/12/06 10:34:05;;;;;;;5.05;4.05;;;;;;;;;;5038455;28;20038;-87
2022/12/06 10:36:41;;;;;;;4.80;3.25;;;;;;;;;;5034379;28;20039;-86
2022/12/06 10:39:26;;;;;;;4.63;3.45;;;;;;;;;;5032559;28;20496;-87
2022/12/06 10:41:58;;;;;;;4.47;3.03;;;;;;;;;;5025649;28;20034;-86
2022/12/06 10:44:26;;;;;;;4.18;3.05;;;;;;;;;;5029329;28;20033;-87
2022/12/06 10:47:03;;;;;;;4.78;3.20;;;;;;;;;;5030760;28;20038;-86
2022/12/06 10:49:38;;;;;;;5.82;3.20;;;;;;;;;;5026021;28;20069;-87
2022/12/06 10:52:24;;;;;;;3.42;2.53;;;;;;;;;;5033957;28;20045;-86
2022/12/06 10:55:10;;;;;;;4.40;3.10;;;;;;;;;;5032039;28;20093;-86
2022/12/06 10:57:40;;;;;;;4.70;3.60;;;;;;;;;;5022548;28;20041;-86
2022/12/06 11:00:12;;;;;;;4.18;3.10;;;;;;;;;;5026966;28;20405;-86
2022/12/06 11:02:40;;;;;;;4.57;3.33;;;;;;;;;;5027103;28;20439;-87
2022/12/06 11:05:26;;;;;;;4.88;3.30;;;;;;;;;;5030655;28;20074;-86
2022/12/06 11:07:53;;;;;;;4.05;3.15;;;;;;;;;;5018355;28;20037;-86
2022/12/06 11:10:21;;;;;;;4.20;3.00;;;;;;;;;;5024143;28;20060;-86
2022/12/06 11:12:47;;;;;;;5.40;3.75;;;;;;;;;;5027666;28;20038;-86
2022/12/06 11:15:16;;;;;;;4.30;3.03;;;;;;;;;;5027003;28;20036;-86
2022/12/06 11:17:50;;;;;;;4.28;3.20;;;;;;;22.38;100.00;120377.91;5023119;28;20049;-86
2022/12/06 11:20:22;;;;;;;4.60;3.40;;;;;;;;;;5019251;28;20045;-86
2022/12/06 11:23:04;;;;;;;3.67;2.70;;;;;;;;;;5033211;28;20041;-85
2022/12/06 11:25:33;;;;;;;4.00;2.92;;;;;;;;;;5033117;28;20060;-85
2022/12/06 11:28:12;;;;;;;4.03;2.90;;;;;;;;;;5028126;28;20045;-85
2022/12/06 11:30:37;;;;;;;4.75;3.47;;;;;;;;;;5033666;28;20056;-85
2022/12/06 11:33:03;;;;;;;3.85;2.90;;;;;;;;;;5033006;28;20124;-86
2022/12/06 11:35:28;;;;;;;3.45;2.78;;;;;;;;;;5034323;28;20097;-85
2022/12/06 11:38:02;;;;;;;3.70;3.10;;;;;;;;;;5028096;28;20030;-85
2022/12/06 11:40:35;;;;;;;3.85;2.63;;;;;;;;;;5033527;28;20111;-85
2022/12/06 11:43:03;;;;;;;4.55;3.25;;;;;;;;;;5032974;28;20033;-85
2022/12/06 11:45:31;;;;;;;3.53;2.88;;;;;;;;;;5034226;28;20102;-85
2022/12/06 11:47:58;;;;;;;5.03;3.22;;;;;;;;;;5021694;28;20394;-85
2022/12/06 11:50:24;;;;;;;4.80;3.50;;;;;;;;;;5036491;28;20690;-85
2022/12/06 11:52:55;;;;;;;4.18;2.90;;;;;;;;;;5032283;28;20048;-85
2022/12/06 11:55:22;;;;;;;4.05;3.03;;;;;;;;;;5033033;28;20037;-86
2022/12/06 11:57:54;;;;;;;4.65;3.20;;;;;;;;;;5031928;28;20037;-84
2022/12/06 12:00:22;;;;;;;4.88;3.15;;;;;;;;;;5046146;28;20045;-86
2022/12/06 12:02:48;;;;;;;5.05;3.33;;;;;;;;;;5032971;28;20060;-85
2022/12/06 12:05:13;;;;;;;4.18;3.03;;;;;;;;;;5023974;28;20714;-84
2022/12/06 12:07:39;;;;;;;4.47;3.20;;;;;;;;;;5033108;28;20061;-85
2022/12/06 12:10:23;;;;;;;4.13;3.13;;;;;;;;;;5031673;28;20052;-86
2022/12/06 12:15:32;;;;;;;4.68;3.20;;;;;;;;;;5031679;28;20175;-86
2022/12/06 12:18:02;;;;;;;4.57;3.00;;;;;;;;;;5034355;28;20085;-86
2022/12/06 12:20:31;;;;;;;4.88;3.30;;;;;;;;;;5032393;28;20543;-85
2022/12/06 12:23:02;;;;;;;4.07;3.20;;;;;;;;;;5033079;28;20037;-86
2022/12/06 12:25:29;;;;;;;4.15;3.08;;;;;;;;;;5033293;28;20065;-86
2022/12/06 12:27:55;;;;;;;4.60;3.17;;;;;;;;;;5033494;28;20041;-85
2022/12/06 12:30:22;;;;;;;3.65;2.65;;;;;;;;;;5031533;28;20058;-90
2022/12/06 12:32:48;;;;;;;5.50;3.85;;;;;;;;;;5029994;28;20041;-87
2022/12/06 12:35:20;;;;;;;4.45;3.10;;;;;;;;;;5030272;28;20045;-87
2022/12/06 12:37:47;;;;;;;4.30;3.10;;;;;;;;;;5030686;28;20038;-87
2022/12/06 12:40:26;;;;;;;4.25;2.92;;;;;;;;;;5027278;28;20121;-87
2022/12/06 12:42:57;;;;;;;4.28;2.80;;;;;;;;;;5030953;28;20382;-87
2022/12/06 12:45:25;;;;;;;;;;;;;;;;;;5026089;28;20397;-87
2022/12/06 12:47:58;;;;;;;5.43;2.92;;;;;;;;;;5030092;28;19952;-88
2022/12/06 12:50:23;;;;;;;3.88;3.05;;;;;;;;;;5025784;28;20555;-87
2022/12/06 12:52:49;;;;;;;4.88;3.40;;;;;;;;;;5025385;28;20041;-88
2022/12/06 12:55:16;;;;;;;4.90;3.45;;;;;;;;;;5026813;28;20121;-87
2022/12/06 12:57:44;;;;;;;5.22;3.33;;;;;;;;;;5028707;28;20030;-89
2022/12/06 13:00:16;;;;;;;4.30;2.80;;;;;;;;;;5026601;28;20037;-86
2022/12/06 13:02:43;;;;;;;4.32;3.15;;;;;;;;;;5021956;28;20053;-85
2022/12/06 13:05:17;;;;;;;5.25;3.53;;;;;;;;;;5037666;28;20043;-86
2022/12/06 13:07:43;;;;;;;4.50;3.10;;;;;;;;;;5040468;28;20041;-85
2022/12/06 13:10:14;;;;;;;3.88;2.70;;;;;;;;;;5034680;28;20108;-85
2022/12/06 13:12:39;;;;;;;;;;;;;;;;;;5034807;28;20055;-85
2022/12/06 13:15:23;;;;;;;5.80;2.70;;;;;;;;;;5045240;28;19992;-86
2022/12/06 13:18:21;;;;;;;4.22;3.10;;;;;;;;;;5047678;28;20045;-83
2022/12/06 13:20:47;;;;;;;4.15;3.10;;;;;;;;;;5002480;28;20041;-85
2022/12/06 13:23:14;;;;;;;4.32;2.80;;;;;;;;;;5040531;28;20041;-85
2022/12/06 13:25:41;;;;;;;3.78;2.92;;;;;;;;;;5030847;28;20137;-87
2022/12/06 13:28:11;;;;;;;3.88;2.58;;;;;;;;;;5027677;28;20629;-88
2022/12/06 13:30:37;;;;;;;3.85;2.97;;;;;;;;;;5028440;28;20572;-88
2022/12/06 13:33:24;;;;;;;4.10;2.70;;;;;;;;;;5030409;28;20056;-88
2022/12/06 13:36:01;;;;;;;3.65;2.60;;;;;;;;;;5029953;28;20033;-87
2022/12/06 13:38:31;;;;;;;4.07;2.95;;;;;;;;;;5031211;28;20034;-87
2022/12/06 13:41:00;;;;;;;3.90;2.80;;;;;;;;;;5031623;28;20025;-87
2022/12/06 13:43:26;;;;;;;4.10;2.90;;;;;;;;;;5028923;28;20060;-88
2022/12/06 13:45:52;;;;;;;3.75;2.80;;;;;;;;;;5028642;28;20583;-88
2022/12/06 13:48:23;;;;;;;3.53;2.55;;;;;;;;;;5027377;28;20038;-87
2022/12/06 13:50:49;;;;;;;;;;;;;;;;;;5030870;28;20044;-87
2022/12/06 13:53:14;;;;;;;3.65;2.53;;;;;;;;;;5030076;28;19917;-87
2022/12/06 13:55:49;;;;;;;4.87;2.73;;;;;;;;;;5033094;28;20048;-89
2022/12/06 13:58:15;;;;;;;4.25;3.30;;;;;;;;;;5032712;28;20624;-87
2022/12/06 14:00:40;;;;;;;4.30;2.78;;;;;;;;;;5032791;28;20048;-88
2022/12/06 14:03:12;;;;;;;4.20;2.95;;;;;;;;;;5033025;28;20435;-87
2022/12/06 14:05:56;;;;;;;4.28;3.00;;;;;;;;;;5034215;28;20065;-87
2022/12/06 14:08:36;;;;;;;3.80;2.47;;;;;;;;;;5032849;28;20096;-86
2022/12/06 14:11:06;;;;;;;3.50;2.65;;;;;;;;;;5032700;28;20068;-87
2022/12/06 14:13:31;;;;;;;3.50;2.80;;;;;;;;;;5031616;28;20060;-87
2022/12/06 14:15:58;;;;;;;3.83;2.53;;;;;;;;;;5031005;28;20030;-87
2022/12/06 14:18:25;;;;;;;3.25;2.20;;;;;;;;;;5030935;28;20030;-87
2022/12/06 14:20:52;;;;;;;3.50;2.47;;;;;;;;;;5033044;28;20038;-89
2022/12/06 14:23:28;;;;;;;3.55;2.40;;;;;;;;;;5031414;28;20048;-87
2022/12/06 14:26:09;;;;;;;3.70;2.70;;;;;;;;;;5033440;28;20029;-88
2022/12/06 14:28:34;;;;;;;3.53;2.83;;;;;;;;;;5032563;28;20040;-91
2022/12/06 14:31:04;;;;;;;3.83;2.97;;;;;;;;;;5034128;28;20030;-88
2022/12/06 14:33:31;;;;;;;3.70;2.70;;;;;;;;;;5033211;28;20519;-87
2022/12/06 14:35:57;;;;;;;3.70;2.50;;;;;;;;;;5030528;28;20049;-87
2022/12/06 14:38:27;;;;;;;3.38;2.50;;;;;;;;;;5031836;28;20037;-87
2022/12/06 14:43:37;;;;;;;3.55;2.30;;;;;;;;;;5034490;28;20045;-87
2022/12/06 14:46:06;;;;;;;3.53;2.60;;;;;;;;;;5034270;28;20033;-87
2022/12/06 14:51:17;;;;;;;2.95;2.17;;;;;;;;;;5030423;28;20174;-89
2022/12/06 14:53:43;;;;;;;2.65;1.90;;;;;;;;;;5035707;28;20088;-88
2022/12/06 14:56:26;;;;;;;3.15;2.40;;;;;;;;;;5026726;28;20038;-87
2022/12/06 14:58:51;;;;;;;2.78;2.10;;;;;;;;;;5024771;28;20041;-88
2022/12/06 15:01:20;;;;;;;3.05;2.10;;;;;;;;;;5026506;28;20538;-88
2022/12/06 15:03:59;;;;;;;2.90;2.25;;;;;;;;;;5029397;28;20056;-88
2022/12/06 15:06:25;;;;;;;2.15;1.80;;;;;;;;;;5026366;28;20041;-88
2022/12/06 15:09:11;;;;;;;3.42;2.10;;;;;;;;;;5027902;28;20072;-88
2022/12/06 15:14:23;;;;;;;3.67;2.53;;;;;;;;;;5023269;28;20388;-88
2022/12/06 15:16:59;;;;;;;4.47;2.47;;;;;;;;;;5027289;28;20048;-87
2022/12/06 15:19:25;;;;;;;4.03;2.70;;;;;;;;;;5031019;28;20040;-89
2022/12/06 15:21:51;;;;;;;3.15;2.08;;;;;;;;;;5031257;28;20037;-88